Weather History for KCOD - November, 2014

Change the Weather History Date:

Monday, November 3, 2014

  Actual Average Record
Temperature  
Mean Temperature 34 °F -  
Max Temperature 46 °F 49 °F 105 °F (1997)
Min Temperature 21 °F 27 °F -8 °F (1935)
Degree Days  
Heating Degree Days 32    
Moisture  
Dew Point 21 °F    
Average Humidity 58    
Maximum Humidity 100    
Minimum Humidity 32    
Precipitation  
Precipitation 0.00 in - - ()
Sea Level Pressure  
Sea Level Pressure 30.07 in    
Wind  
Wind Speed 3 mph (SW)    
Max Wind Speed 23 mph    
Max Gust Speed 38 mph    
Visibility 10 miles    
Events      
Averages and records for this station are not official NWS values.
T = Trace of Precipitation, MM = Missing Value Source: NWS Daily Summary

Daily Weather History Graph

Daily Weather History Graph

Search for Another Location

Airport or City:

Trip Planner

Search our weather history database for the weather conditions in past years. The results will help you decide how hot, cold, wet, or windy it might be!

Date:

Astronomy

Nov. 03, 2014 Rise Set
Actual Time 6:56 AM MST 5:02 PM MST
Civil Twilight 6:25 AM MST 5:32 PM MST
Nautical Twilight 5:51 AM MST 6:07 PM MST
Astronomical Twilight 5:17 AM MST 6:41 PM MST
Moon 3:21 PM MST (11/3) 3:01 AM MST (11/3)
Length of Visible Light 11h 06m
Length of Day
10h 05m
Waxing Gibbous, 88% of the Moon is Illuminated
Nov 3
Waxing Gibbous
Nov 6
Full
Nov 14
Last Quarter
Nov 22
New
Nov 29
First Quarter

Hourly Weather History & Observations

Time (MST) Temp. Windchill Dew Point Humidity Pressure Visibility Wind Dir Wind Speed Gust Speed Precip Events Conditions
12:15 AM 30.2 °F - 23.0 °F 75% 29.94 in 10.0 mi Calm Calm - N/A   Clear
12:35 AM 30.2 °F - 21.2 °F 69% 29.94 in 10.0 mi Calm Calm - N/A   Clear
12:55 AM 30.2 °F - 23.0 °F 75% 29.94 in 10.0 mi Calm Calm - N/A   Clear
1:15 AM 28.4 °F - 23.0 °F 80% 29.95 in 10.0 mi Calm Calm - N/A   Clear
1:35 AM 26.6 °F 22.6 °F 21.2 °F 80% 29.95 in 10.0 mi SSW 3.5 mph - N/A   Clear
1:55 AM 26.6 °F - 24.8 °F 93% 29.95 in 10.0 mi Calm Calm - N/A   Clear
2:15 AM 28.4 °F - 26.6 °F 93% 29.95 in 10.0 mi Calm Calm - N/A   Partly Cloudy
2:35 AM 28.4 °F - 21.2 °F 74% 29.95 in - Calm Calm - N/A   Scattered Clouds
2:55 AM 28.4 °F - 21.2 °F 74% 29.96 in 10.0 mi Calm Calm - N/A   Mostly Cloudy
3:15 AM 26.6 °F 21.2 °F 21.2 °F 80% 29.96 in 10.0 mi SSE 4.6 mph - N/A   Overcast
3:35 AM 26.6 °F 19.1 °F 21.2 °F 80% 29.97 in 10.0 mi SSE 6.9 mph - N/A   Mostly Cloudy
3:55 AM 26.6 °F 19.1 °F 23.0 °F 86% 29.97 in 10.0 mi South 6.9 mph - N/A   Partly Cloudy
4:15 AM 26.6 °F - 23.0 °F 86% 29.98 in 10.0 mi Calm Calm - N/A   Clear
4:35 AM 26.6 °F - 24.8 °F 93% 29.98 in 10.0 mi Calm Calm - N/A   Clear
4:55 AM 24.8 °F - 23.0 °F 93% 29.98 in 10.0 mi Calm Calm - N/A   Clear
5:15 AM 24.8 °F - 24.8 °F 100% 29.99 in 10.0 mi Calm Calm - N/A   Clear
5:35 AM 24.8 °F 20.5 °F 23.0 °F 93% 29.99 in 10.0 mi SSE 3.5 mph - N/A   Clear
5:55 AM 24.8 °F - 23.0 °F 93% 30.00 in 10.0 mi Calm Calm - N/A   Clear
6:15 AM 24.8 °F 19.1 °F 21.2 °F 86% 30.00 in 10.0 mi SSE 4.6 mph - N/A   Clear
6:35 AM 23.0 °F 18.4 °F 23.0 °F 100% 30.00 in 10.0 mi South 3.5 mph - N/A   Clear
6:55 AM 21.2 °F - 19.4 °F 93% 30.01 in 10.0 mi Calm Calm - N/A   Clear
7:15 AM 24.8 °F 20.5 °F 24.8 °F 100% 30.02 in 10.0 mi South 3.5 mph - N/A   Clear
7:35 AM 24.8 °F 19.1 °F 19.4 °F 80% 30.02 in 10.0 mi South 4.6 mph - N/A   Clear
7:55 AM 26.6 °F - 24.8 °F 93% 30.03 in 10.0 mi Calm Calm - N/A   Clear
8:15 AM 30.2 °F - 24.8 °F 80% 30.04 in - Calm Calm - N/A   Clear
8:35 AM 32.0 °F - 24.8 °F 75% 30.05 in 10.0 mi Calm Calm - N/A   Clear
8:55 AM 33.8 °F - 26.6 °F 75% 30.06 in 10.0 mi Calm Calm - N/A   Clear
9:15 AM 33.8 °F - 24.8 °F 70% 30.06 in 10.0 mi Calm Calm - N/A   Clear
9:35 AM 35.6 °F 29.9 °F 24.8 °F 65% 30.07 in 10.0 mi NE 6.9 mph - N/A   Clear
9:55 AM 35.6 °F 30.7 °F 24.8 °F 65% 30.08 in 10.0 mi NE 5.8 mph - N/A   Clear
10:15 AM 35.6 °F 32.8 °F 24.8 °F 65% 30.08 in 10.0 mi NE 3.5 mph - N/A   Clear
10:35 AM 39.2 °F 35.9 °F 21.2 °F 49% 30.08 in 10.0 mi ENE 4.6 mph - N/A   Clear
10:55 AM 42.8 °F 41.1 °F 21.2 °F 42% 30.08 in 10.0 mi ENE 3.5 mph - N/A   Clear
11:15 AM 42.8 °F 41.1 °F 21.2 °F 42% 30.08 in 10.0 mi NE 3.5 mph - N/A   Clear
11:35 AM 44.6 °F 40.7 °F 21.2 °F 39% 30.08 in 10.0 mi NE 6.9 mph - N/A   Clear
11:55 AM 44.6 °F 39.7 °F 21.2 °F 39% 30.08 in 10.0 mi NNE 9.2 mph - N/A   Clear
12:15 PM 46.4 °F 41.9 °F 21.2 °F 37% 30.08 in 10.0 mi NE 9.2 mph - N/A   Clear
12:35 PM 44.6 °F 40.7 °F 21.2 °F 39% 30.08 in 10.0 mi East 6.9 mph - N/A   Clear
12:55 PM 44.6 °F 43.1 °F 21.2 °F 39% 30.08 in 10.0 mi East 3.5 mph - N/A   Clear
1:15 PM 46.4 °F - 19.4 °F 34% 30.07 in 10.0 mi Calm Calm - N/A   Clear
1:35 PM 46.4 °F 43.5 °F 19.4 °F 34% 30.07 in 10.0 mi East 5.8 mph - N/A   Clear
1:55 PM 46.4 °F 43.5 °F 17.6 °F 32% 30.06 in 10.0 mi SSE 5.8 mph - N/A   Clear
2:15 PM 46.4 °F - 17.6 °F 32% 30.07 in 10.0 mi Calm Calm - N/A   Clear
2:35 PM 46.4 °F 44.3 °F 17.6 °F 32% 30.07 in 10.0 mi ESE 4.6 mph - N/A   Clear
2:55 PM 46.4 °F - 17.6 °F 32% 30.07 in 10.0 mi Calm Calm - N/A   Clear
3:15 PM 46.4 °F 45.2 °F 19.4 °F 34% 30.07 in 10.0 mi NE 3.5 mph - N/A   Clear
3:35 PM 46.4 °F - 19.4 °F 34% 30.08 in 10.0 mi Calm Calm - N/A   Clear
3:55 PM 46.4 °F - 19.4 °F 34% 30.10 in 10.0 mi Calm Calm - N/A   Clear
4:15 PM 46.4 °F 45.2 °F 21.2 °F 37% 30.11 in 10.0 mi North 3.5 mph - N/A   Clear
4:35 PM 44.6 °F 41.4 °F 19.4 °F 37% 30.11 in 10.0 mi NNE 5.8 mph - N/A   Clear
4:55 PM 42.8 °F 40.1 °F 19.4 °F 39% 30.11 in 10.0 mi NE 4.6 mph - N/A   Clear
5:15 PM 42.8 °F - 17.6 °F 36% 30.12 in 10.0 mi Calm Calm - N/A   Clear
5:35 PM 42.8 °F 39.3 °F 19.4 °F 39% 30.13 in 10.0 mi West 5.8 mph - N/A   Clear
5:55 PM 41.0 °F - 17.6 °F 39% 30.14 in 10.0 mi Calm Calm - N/A   Clear
6:15 PM 39.2 °F 34.2 °F 19.4 °F 45% 30.14 in 10.0 mi WNW 6.9 mph - N/A   Clear
6:35 PM 41.0 °F 38.0 °F 19.4 °F 42% 30.14 in 10.0 mi NNW 4.6 mph - N/A   Clear
6:55 PM 42.8 °F 37.0 °F 19.4 °F 39% 30.15 in 10.0 mi West 10.4 mph - N/A   Clear
7:15 PM 42.8 °F 37.0 °F 19.4 °F 39% 30.16 in 10.0 mi West 10.4 mph - N/A   Clear
7:35 PM 42.8 °F 37.0 °F 19.4 °F 39% 30.16 in 10.0 mi West 10.4 mph - N/A   Clear
7:55 PM 41.0 °F 33.5 °F 19.4 °F 42% 30.17 in 10.0 mi West 13.8 mph 18.4 mph N/A   Clear
8:15 PM 42.8 °F 35.4 °F 19.4 °F 39% 30.17 in 10.0 mi WSW 15.0 mph 25.3 mph N/A   Clear
8:35 PM 42.8 °F 36.2 °F 19.4 °F 39% 30.17 in 10.0 mi West 12.7 mph 21.9 mph N/A   Clear
8:55 PM 42.8 °F 36.2 °F 21.2 °F 42% 30.18 in 10.0 mi WSW 12.7 mph - N/A   Clear
9:15 PM 42.8 °F 36.2 °F 21.2 °F 42% 30.17 in 10.0 mi WSW 12.7 mph 21.9 mph N/A   Clear
9:35 PM 42.8 °F 34.8 °F 21.2 °F 42% 30.17 in 10.0 mi WSW 17.3 mph 21.9 mph N/A   Clear
9:55 PM 42.8 °F 35.8 °F 21.2 °F 42% 30.17 in 10.0 mi WSW 13.8 mph 20.7 mph N/A   Clear
10:15 PM 41.0 °F 33.1 °F 21.2 °F 45% 30.17 in 10.0 mi WSW 15.0 mph 29.9 mph N/A   Clear
10:35 PM 42.8 °F 37.0 °F 19.4 °F 39% 30.16 in 10.0 mi WSW 10.4 mph 26.5 mph N/A   Clear
10:55 PM 42.8 °F 35.8 °F 19.4 °F 39% 30.16 in 10.0 mi WSW 13.8 mph 28.8 mph N/A   Clear
11:15 PM 42.8 °F 35.8 °F 19.4 °F 39% 30.16 in 10.0 mi WSW 13.8 mph 24.2 mph N/A   Clear
11:35 PM 42.8 °F 33.5 °F 19.4 °F 39% 30.16 in 10.0 mi West 23.0 mph 38.0 mph N/A   Clear
11:55 PM 42.8 °F 35.4 °F 19.4 °F 39% 30.17 in 10.0 mi WSW 15.0 mph 29.9 mph N/A   Clear